sensor_id;sensor_type;location;lat;lon;timestamp;pressure;altitude;pressure_sealevel;temperature;humidity
64544;BME280;50936;51.660;5.616;2023-01-30T00:01:23;101458.66;;;4.27;100.00
64544;BME280;50936;51.660;5.616;2023-01-30T00:03:52;101449.72;;;4.28;100.00
64544;BME280;50936;51.660;5.616;2023-01-30T00:06:19;101453.19;;;4.30;100.00
64544;BME280;50936;51.660;5.616;2023-01-30T00:08:47;101448.69;;;4.32;100.00
64544;BME280;50936;51.660;5.616;2023-01-30T00:11:15;101451.34;;;4.32;100.00
64544;BME280;50936;51.660;5.616;2023-01-30T00:13:47;101441.44;;;4.35;100.00
64544;BME280;50936;51.660;5.616;2023-01-30T00:16:16;101422.56;;;4.40;100.00
64544;BME280;50936;51.660;5.616;2023-01-30T00:18:44;101413.50;;;4.44;100.00
64544;BME280;50936;51.660;5.616;2023-01-30T00:21:12;101438.34;;;4.48;100.00
64544;BME280;50936;51.660;5.616;2023-01-30T00:23:40;101430.13;;;4.52;100.00
64544;BME280;50936;51.660;5.616;2023-01-30T00:26:09;101426.31;;;4.59;100.00
64544;BME280;50936;51.660;5.616;2023-01-30T00:28:38;101416.34;;;4.65;100.00
64544;BME280;50936;51.660;5.616;2023-01-30T00:31:05;101423.31;;;4.69;100.00
64544;BME280;50936;51.660;5.616;2023-01-30T00:33:32;101421.34;;;4.74;100.00
64544;BME280;50936;51.660;5.616;2023-01-30T00:36:00;101422.94;;;4.79;100.00
64544;BME280;50936;51.660;5.616;2023-01-30T00:38:27;101419.28;;;4.82;100.00
64544;BME280;50936;51.660;5.616;2023-01-30T00:40:54;101420.06;;;4.86;100.00
64544;BME280;50936;51.660;5.616;2023-01-30T00:43:22;101408.34;;;4.88;100.00
64544;BME280;50936;51.660;5.616;2023-01-30T00:46:13;101413.59;;;4.91;100.00
64544;BME280;50936;51.660;5.616;2023-01-30T00:49:05;101406.50;;;4.90;100.00
64544;BME280;50936;51.660;5.616;2023-01-30T00:51:33;101414.56;;;4.89;100.00
64544;BME280;50936;51.660;5.616;2023-01-30T00:54:00;101419.06;;;4.88;100.00
64544;BME280;50936;51.660;5.616;2023-01-30T00:56:27;101408.44;;;4.85;100.00
64544;BME280;50936;51.660;5.616;2023-01-30T00:58:55;101391.59;;;4.83;100.00
64544;BME280;50936;51.660;5.616;2023-01-30T01:01:22;101401.38;;;4.84;100.00
64544;BME280;50936;51.660;5.616;2023-01-30T01:03:50;101400.44;;;4.85;100.00
64544;BME280;50936;51.660;5.616;2023-01-30T01:06:16;101403.91;;;4.87;100.00
64544;BME280;50936;51.660;5.616;2023-01-30T01:08:44;101396.59;;;4.92;100.00
64544;BME280;50936;51.660;5.616;2023-01-30T01:11:11;101400.16;;;4.93;100.00
64544;BME280;50936;51.660;5.616;2023-01-30T01:13:54;101384.16;;;4.91;100.00
64544;BME280;50936;51.660;5.616;2023-01-30T01:16:24;101384.16;;;4.91;100.00
64544;BME280;50936;51.660;5.616;2023-01-30T01:18:53;101386.69;;;4.94;100.00
64544;BME280;50936;51.660;5.616;2023-01-30T01:21:21;101372.28;;;4.98;100.00
64544;BME280;50936;51.660;5.616;2023-01-30T01:23:56;101378.41;;;5.02;100.00
64544;BME280;50936;51.660;5.616;2023-01-30T01:26:25;101373.91;;;5.03;100.00
64544;BME280;50936;51.660;5.616;2023-01-30T01:28:56;101366.59;;;5.08;100.00
64544;BME280;50936;51.660;5.616;2023-01-30T01:31:24;101365.53;;;5.12;100.00
64544;BME280;50936;51.660;5.616;2023-01-30T01:33:54;101371.69;;;5.14;100.00
64544;BME280;50936;51.660;5.616;2023-01-30T01:36:21;101369.81;;;5.16;100.00
64544;BME280;50936;51.660;5.616;2023-01-30T01:39:08;101368.84;;;5.18;100.00
64544;BME280;50936;51.660;5.616;2023-01-30T01:41:35;101369.47;;;5.25;100.00
64544;BME280;50936;51.660;5.616;2023-01-30T01:44:10;101362.25;;;5.27;100.00
64544;BME280;50936;51.660;5.616;2023-01-30T01:49:34;101347.69;;;5.34;100.00
64544;BME280;50936;51.660;5.616;2023-01-30T01:52:07;101340.47;;;5.36;100.00
64544;BME280;50936;51.660;5.616;2023-01-30T01:54:52;101341.22;;;5.40;100.00
64544;BME280;50936;51.660;5.616;2023-01-30T01:57:30;101334.88;;;5.43;100.00
64544;BME280;50936;51.660;5.616;2023-01-30T02:00:06;101341.97;;;5.44;100.00
64544;BME280;50936;51.660;5.616;2023-01-30T02:02:42;101323.16;;;5.45;100.00
64544;BME280;50936;51.660;5.616;2023-01-30T02:05:17;101322.28;;;5.45;100.00
64544;BME280;50936;51.660;5.616;2023-01-30T02:08:38;101319.66;;;5.43;100.00
64544;BME280;50936;51.660;5.616;2023-01-30T02:13:38;101310.19;;;5.34;100.00
64544;BME280;50936;51.660;5.616;2023-01-30T02:16:06;101311.13;;;5.33;100.00
64544;BME280;50936;51.660;5.616;2023-01-30T02:18:38;101306.69;;;5.32;100.00
64544;BME280;50936;51.660;5.616;2023-01-30T02:26:58;101304.97;;;5.31;100.00
64544;BME280;50936;51.660;5.616;2023-01-30T02:38:40;101288.91;;;5.31;100.00
64544;BME280;50936;51.660;5.616;2023-01-30T02:41:49;101299.72;;;5.28;100.00
64544;BME280;50936;51.660;5.616;2023-01-30T02:47:37;101283.53;;;5.31;100.00
64544;BME280;50936;51.660;5.616;2023-01-30T02:50:14;101270.16;;;5.31;100.00
64544;BME280;50936;51.660;5.616;2023-01-30T02:52:56;101276.44;;;5.30;100.00
64544;BME280;50936;51.660;5.616;2023-01-30T02:55:26;101269.31;;;5.29;100.00
64544;BME280;50936;51.660;5.616;2023-01-30T02:57:55;101268.44;;;5.29;100.00
64544;BME280;50936;51.660;5.616;2023-01-30T03:00:40;101270.25;;;5.28;100.00
64544;BME280;50936;51.660;5.616;2023-01-30T03:03:37;101254.19;;;5.28;100.00
64544;BME280;50936;51.660;5.616;2023-01-30T03:09:19;101258.75;;;5.26;100.00
64544;BME280;50936;51.660;5.616;2023-01-30T03:17:14;101247.88;;;5.29;100.00
64544;BME280;50936;51.660;5.616;2023-01-30T03:19:44;101253.25;;;5.29;100.00
64544;BME280;50936;51.660;5.616;2023-01-30T03:22:14;101250.56;;;5.29;100.00
64544;BME280;50936;51.660;5.616;2023-01-30T03:24:42;101238.06;;;5.30;100.00
64544;BME280;50936;51.660;5.616;2023-01-30T03:27:10;101234.38;;;5.32;100.00
64544;BME280;50936;51.660;5.616;2023-01-30T03:29:38;101244.16;;;5.33;100.00
64544;BME280;50936;51.660;5.616;2023-01-30T03:32:06;101247.66;;;5.35;100.00
64544;BME280;50936;51.660;5.616;2023-01-30T03:34:33;101240.41;;;5.37;100.00
64544;BME280;50936;51.660;5.616;2023-01-30T03:37:00;101230.50;;;5.39;100.00
64544;BME280;50936;51.660;5.616;2023-01-30T03:39:27;101238.44;;;5.43;100.00
64544;BME280;50936;51.660;5.616;2023-01-30T03:41:57;101227.72;;;5.43;100.00
64544;BME280;50936;51.660;5.616;2023-01-30T03:44:25;101228.53;;;5.45;100.00
64544;BME280;50936;51.660;5.616;2023-01-30T03:46:52;101230.94;;;5.51;100.00
64544;BME280;50936;51.660;5.616;2023-01-30T03:49:19;101218.28;;;5.54;100.00
64544;BME280;50936;51.660;5.616;2023-01-30T03:51:47;101227.19;;;5.55;100.00
64544;BME280;50936;51.660;5.616;2023-01-30T03:54:14;101218.22;;;5.56;100.00
64544;BME280;50936;51.660;5.616;2023-01-30T03:56:40;101218.09;;;5.59;100.00
64544;BME280;50936;51.660;5.616;2023-01-30T03:59:08;101237.66;;;5.61;100.00
64544;BME280;50936;51.660;5.616;2023-01-30T04:01:41;101226.81;;;5.64;100.00
64544;BME280;50936;51.660;5.616;2023-01-30T04:04:08;101229.28;;;5.69;100.00
64544;BME280;50936;51.660;5.616;2023-01-30T04:06:35;101225.69;;;5.70;100.00
64544;BME280;50936;51.660;5.616;2023-01-30T04:09:03;101236.25;;;5.73;100.00
64544;BME280;50936;51.660;5.616;2023-01-30T04:11:41;101224.53;;;5.75;100.00
64544;BME280;50936;51.660;5.616;2023-01-30T04:14:08;101234.25;;;5.78;100.00
64544;BME280;50936;51.660;5.616;2023-01-30T04:16:46;101219.81;;;5.81;100.00
64544;BME280;50936;51.660;5.616;2023-01-30T04:19:38;101228.53;;;5.86;100.00
64544;BME280;50936;51.660;5.616;2023-01-30T04:22:05;101229.34;;;5.88;100.00
64544;BME280;50936;51.660;5.616;2023-01-30T04:24:32;101221.31;;;5.88;100.00
64544;BME280;50936;51.660;5.616;2023-01-30T04:26:59;101216.78;;;5.90;100.00
64544;BME280;50936;51.660;5.616;2023-01-30T04:29:26;101218.44;;;5.92;100.00
64544;BME280;50936;51.660;5.616;2023-01-30T04:31:55;101207.78;;;5.91;100.00
64544;BME280;50936;51.660;5.616;2023-01-30T04:34:26;101211.25;;;5.93;100.00
64544;BME280;50936;51.660;5.616;2023-01-30T04:36:53;101214.72;;;5.95;100.00
64544;BME280;50936;51.660;5.616;2023-01-30T04:39:19;101226.28;;;5.97;100.00
64544;BME280;50936;51.660;5.616;2023-01-30T04:41:47;101225.25;;;6.01;100.00
64544;BME280;50936;51.660;5.616;2023-01-30T04:44:14;101220.69;;;6.03;100.00
64544;BME280;50936;51.660;5.616;2023-01-30T04:46:48;101231.34;;;6.05;100.00
64544;BME280;50936;51.660;5.616;2023-01-30T04:49:15;101224.22;;;6.04;100.00
64544;BME280;50936;51.660;5.616;2023-01-30T04:51:42;101218.66;;;6.08;100.00
64544;BME280;50936;51.660;5.616;2023-01-30T04:54:09;101223.75;;;6.14;100.00
64544;BME280;50936;51.660;5.616;2023-01-30T04:56:36;101217.28;;;6.19;100.00
64544;BME280;50936;51.660;5.616;2023-01-30T04:59:05;101214.53;;;6.20;100.00
64544;BME280;50936;51.660;5.616;2023-01-30T05:01:38;101218.88;;;6.23;100.00
64544;BME280;50936;51.660;5.616;2023-01-30T05:04:06;101234.84;;;6.26;100.00
64544;BME280;50936;51.660;5.616;2023-01-30T05:06:34;101218.63;;;6.29;100.00
64544;BME280;50936;51.660;5.616;2023-01-30T05:09:02;101220.22;;;6.33;100.00
64544;BME280;50936;51.660;5.616;2023-01-30T05:11:31;101231.69;;;6.36;100.00
64544;BME280;50936;51.660;5.616;2023-01-30T05:13:58;101232.53;;;6.37;100.00
64544;BME280;50936;51.660;5.616;2023-01-30T05:16:26;101229.72;;;6.40;100.00
64544;BME280;50936;51.660;5.616;2023-01-30T05:18:53;101225.91;;;6.46;100.00
64544;BME280;50936;51.660;5.616;2023-01-30T05:21:25;101216.03;;;6.46;100.00
64544;BME280;50936;51.660;5.616;2023-01-30T05:23:56;101218.50;;;6.51;100.00
64544;BME280;50936;51.660;5.616;2023-01-30T05:26:23;101217.47;;;6.53;100.00
64544;BME280;50936;51.660;5.616;2023-01-30T05:28:55;101220.22;;;6.52;100.00
64544;BME280;50936;51.660;5.616;2023-01-30T05:31:23;101215.75;;;6.52;100.00
64544;BME280;50936;51.660;5.616;2023-01-30T05:33:51;101225.84;;;6.47;100.00
64544;BME280;50936;51.660;5.616;2023-01-30T05:36:20;101208.94;;;6.45;100.00
64544;BME280;50936;51.660;5.616;2023-01-30T05:38:49;101208.94;;;6.45;100.00
64544;BME280;50936;51.660;5.616;2023-01-30T05:41:16;101220.59;;;6.44;100.00
64544;BME280;50936;51.660;5.616;2023-01-30T05:43:48;101218.81;;;6.45;100.00
64544;BME280;50936;51.660;5.616;2023-01-30T05:46:16;101217.13;;;6.42;100.00
64544;BME280;50936;51.660;5.616;2023-01-30T05:48:43;101219.00;;;6.40;100.00
64544;BME280;50936;51.660;5.616;2023-01-30T05:51:19;101221.69;;;6.40;100.00
64544;BME280;50936;51.660;5.616;2023-01-30T05:53:51;101219.00;;;6.40;100.00
64544;BME280;50936;51.660;5.616;2023-01-30T05:56:18;101232.28;;;6.43;100.00
64544;BME280;50936;51.660;5.616;2023-01-30T05:58:53;101234.00;;;6.44;100.00
64544;BME280;50936;51.660;5.616;2023-01-30T06:01:22;101238.28;;;6.48;100.00
64544;BME280;50936;51.660;5.616;2023-01-30T06:03:49;101240.72;;;6.54;100.00
64544;BME280;50936;51.660;5.616;2023-01-30T06:06:16;101231.69;;;6.55;100.00
64544;BME280;50936;51.660;5.616;2023-01-30T06:08:44;101240.56;;;6.58;100.00
64544;BME280;50936;51.660;5.616;2023-01-30T06:11:13;101252.91;;;6.62;100.00
64544;BME280;50936;51.660;5.616;2023-01-30T06:13:42;101251.88;;;6.64;100.00
64544;BME280;50936;51.660;5.616;2023-01-30T06:16:11;101252.75;;;6.65;100.00
64544;BME280;50936;51.660;5.616;2023-01-30T06:18:40;101254.63;;;6.63;100.00
64544;BME280;50936;51.660;5.616;2023-01-30T06:21:08;101263.63;;;6.62;100.00
64544;BME280;50936;51.660;5.616;2023-01-30T06:23:35;101263.78;;;6.59;100.00
64544;BME280;50936;51.660;5.616;2023-01-30T06:26:02;101268.22;;;6.60;100.00
64544;BME280;50936;51.660;5.616;2023-01-30T06:28:33;101271.88;;;6.57;100.00
64544;BME280;50936;51.660;5.616;2023-01-30T06:31:01;101267.41;;;6.58;100.00
64544;BME280;50936;51.660;5.616;2023-01-30T06:33:28;101281.75;;;6.57;100.00
64544;BME280;50936;51.660;5.616;2023-01-30T06:35:55;101267.69;;;6.51;100.00
64544;BME280;50936;51.660;5.616;2023-01-30T06:38:22;101289.56;;;6.42;100.00
64544;BME280;50936;51.660;5.616;2023-01-30T06:40:51;101286.38;;;6.34;100.00
64544;BME280;50936;51.660;5.616;2023-01-30T06:43:18;101278.44;;;6.31;100.00
64544;BME280;50936;51.660;5.616;2023-01-30T06:45:45;101273.38;;;6.25;100.00
64544;BME280;50936;51.660;5.616;2023-01-30T06:48:12;101279.78;;;6.21;100.00
64544;BME280;50936;51.660;5.616;2023-01-30T06:50:39;101272.94;;;6.13;100.00
64544;BME280;50936;51.660;5.616;2023-01-30T06:53:07;101283.94;;;6.07;100.00
64544;BME280;50936;51.660;5.616;2023-01-30T06:55:35;101273.22;;;6.07;100.00
64544;BME280;50936;51.660;5.616;2023-01-30T06:58:12;101269.75;;;6.05;100.00
64544;BME280;50936;51.660;5.616;2023-01-30T07:00:41;101266.25;;;6.03;100.00
64544;BME280;50936;51.660;5.616;2023-01-30T07:03:13;101271.63;;;6.03;100.00
64544;BME280;50936;51.660;5.616;2023-01-30T07:05:43;101279.84;;;5.98;100.00
64544;BME280;50936;51.660;5.616;2023-01-30T07:08:11;101276.47;;;5.93;100.00
64544;BME280;50936;51.660;5.616;2023-01-30T07:10:40;101289.06;;;5.91;100.00
64544;BME280;50936;51.660;5.616;2023-01-30T07:13:07;101292.69;;;5.90;100.00
64544;BME280;50936;51.660;5.616;2023-01-30T07:15:34;101290.19;;;5.86;100.00
64544;BME280;50936;51.660;5.616;2023-01-30T07:18:01;101293.03;;;5.83;100.00
64544;BME280;50936;51.660;5.616;2023-01-30T07:20:28;101302.13;;;5.78;100.00
64544;BME280;50936;51.660;5.616;2023-01-30T07:22:57;101304.94;;;5.75;100.00
64544;BME280;50936;51.660;5.616;2023-01-30T07:25:25;101304.00;;;5.76;100.00
64544;BME280;50936;51.660;5.616;2023-01-30T07:27:56;101298.50;;;5.79;100.00
64544;BME280;50936;51.660;5.616;2023-01-30T07:30:26;101304.94;;;5.75;100.00
64544;BME280;50936;51.660;5.616;2023-01-30T07:32:57;101315.78;;;5.72;100.00
64544;BME280;50936;51.660;5.616;2023-01-30T07:35:28;101324.91;;;5.68;100.00
64544;BME280;50936;51.660;5.616;2023-01-30T07:38:00;101321.31;;;5.68;100.00
64544;BME280;50936;51.660;5.616;2023-01-30T07:40:27;101321.47;;;5.65;100.00
64544;BME280;50936;51.660;5.616;2023-01-30T07:43:05;101320.53;;;5.66;100.00
64544;BME280;50936;51.660;5.616;2023-01-30T07:45:44;101312.56;;;5.64;100.00
64544;BME280;50936;51.660;5.616;2023-01-30T07:48:15;101309.06;;;5.62;100.00
64544;BME280;50936;51.660;5.616;2023-01-30T07:50:44;101313.56;;;5.62;100.00
64544;BME280;50936;51.660;5.616;2023-01-30T07:53:13;101307.31;;;5.61;100.00
64544;BME280;50936;51.660;5.616;2023-01-30T07:55:41;101308.41;;;5.57;100.00
64544;BME280;50936;51.660;5.616;2023-01-30T07:58:13;101322.66;;;5.57;100.00
64544;BME280;50936;51.660;5.616;2023-01-30T08:00:42;101325.28;;;5.59;100.00
64544;BME280;50936;51.660;5.616;2023-01-30T08:03:14;101325.41;;;5.56;100.00
64544;BME280;50936;51.660;5.616;2023-01-30T08:05:44;101331.66;;;5.55;100.00
64544;BME280;50936;51.660;5.616;2023-01-30T08:08:12;101327.38;;;5.51;100.00
64544;BME280;50936;51.660;5.616;2023-01-30T08:10:40;101328.41;;;5.48;100.00
64544;BME280;50936;51.660;5.616;2023-01-30T08:13:07;101347.09;;;5.50;100.00
64544;BME280;50936;51.660;5.616;2023-01-30T08:15:33;101336.38;;;5.50;100.00
64544;BME280;50936;51.660;5.616;2023-01-30T08:18:00;101348.81;;;5.51;100.00
64544;BME280;50936;51.660;5.616;2023-01-30T08:20:28;101358.66;;;5.50;100.00
64544;BME280;50936;51.660;5.616;2023-01-30T08:22:55;101364.88;;;5.51;100.00
64544;BME280;50936;51.660;5.616;2023-01-30T08:25:24;101354.06;;;5.54;100.00
64544;BME280;50936;51.660;5.616;2023-01-30T08:27:51;101359.41;;;5.54;100.00
64544;BME280;50936;51.660;5.616;2023-01-30T08:30:20;101348.59;;;5.57;100.00
64544;BME280;50936;51.660;5.616;2023-01-30T08:32:48;101339.59;;;5.58;100.00
64544;BME280;50936;51.660;5.616;2023-01-30T08:35:15;101355.50;;;5.63;100.00
64544;BME280;50936;51.660;5.616;2023-01-30T08:37:43;101361.66;;;5.65;100.00
64544;BME280;50936;51.660;5.616;2023-01-30T08:40:10;101350.81;;;5.68;100.00
64544;BME280;50936;51.660;5.616;2023-01-30T08:42:38;101362.28;;;5.71;100.00
64544;BME280;50936;51.660;5.616;2023-01-30T08:45:05;101364.94;;;5.71;100.00
64544;BME280;50936;51.660;5.616;2023-01-30T08:47:32;101364.16;;;5.69;100.00
64544;BME280;50936;51.660;5.616;2023-01-30T08:50:01;101367.63;;;5.71;100.00
64544;BME280;50936;51.660;5.616;2023-01-30T08:52:31;101366.66;;;5.74;100.00
64544;BME280;50936;51.660;5.616;2023-01-30T08:54:59;101379.09;;;5.75;100.00
64544;BME280;50936;51.660;5.616;2023-01-30T08:57:27;101373.63;;;5.78;100.00
64544;BME280;50936;51.660;5.616;2023-01-30T08:59:54;101374.50;;;5.78;100.00
64544;BME280;50936;51.660;5.616;2023-01-30T09:02:21;101389.53;;;5.83;100.00
64544;BME280;50936;51.660;5.616;2023-01-30T09:04:48;101393.94;;;5.84;100.00
64544;BME280;50936;51.660;5.616;2023-01-30T09:07:14;101397.31;;;5.89;100.00
64544;BME280;50936;51.660;5.616;2023-01-30T09:09:41;101402.63;;;5.90;100.00
64544;BME280;50936;51.660;5.616;2023-01-30T09:12:08;101396.41;;;5.90;100.00
64544;BME280;50936;51.660;5.616;2023-01-30T09:14:35;101403.34;;;5.95;100.00
64544;BME280;50936;51.660;5.616;2023-01-30T09:17:02;101419.06;;;6.05;100.00
64544;BME280;50936;51.660;5.616;2023-01-30T09:19:29;101406.38;;;6.08;100.00
64544;BME280;50936;51.660;5.616;2023-01-30T09:21:56;101393.63;;;6.13;100.00
64544;BME280;50936;51.660;5.616;2023-01-30T09:24:23;101403.25;;;6.19;100.00
64544;BME280;50936;51.660;5.616;2023-01-30T09:26:54;101403.91;;;6.24;100.00
64544;BME280;50936;51.660;5.616;2023-01-30T09:29:26;101406.13;;;6.35;100.00
64544;BME280;50936;51.660;5.616;2023-01-30T09:31:54;101405.63;;;6.47;100.00
64544;BME280;50936;51.660;5.616;2023-01-30T09:34:25;101412.34;;;6.58;100.00
64544;BME280;50936;51.660;5.616;2023-01-30T09:36:55;101416.16;;;6.72;100.00
64544;BME280;50936;51.660;5.616;2023-01-30T09:39:28;101419.91;;;6.89;100.00
64544;BME280;50936;51.660;5.616;2023-01-30T09:42:29;101413.69;;;7.07;100.00
64544;BME280;50936;51.660;5.616;2023-01-30T09:45:36;101407.66;;;7.21;100.00
64544;BME280;50936;51.660;5.616;2023-01-30T09:51:43;101414.00;;;7.20;100.00
64544;BME280;50936;51.660;5.616;2023-01-30T09:54:35;101423.78;;;7.21;100.00
64544;BME280;50936;51.660;5.616;2023-01-30T09:59:55;101429.16;;;7.21;100.00
64544;BME280;50936;51.660;5.616;2023-01-30T10:04:56;101436.16;;;7.25;100.00
64544;BME280;50936;51.660;5.616;2023-01-30T10:07:43;101436.06;;;7.27;100.00
64544;BME280;50936;51.660;5.616;2023-01-30T10:13:28;101450.25;;;7.30;100.00
64544;BME280;50936;51.660;5.616;2023-01-30T10:18:59;101448.81;;;7.42;100.00
64544;BME280;50936;51.660;5.616;2023-01-30T10:22:19;101448.59;;;7.47;100.00
64544;BME280;50936;51.660;5.616;2023-01-30T10:25:30;101428.03;;;7.46;100.00
64544;BME280;50936;51.660;5.616;2023-01-30T10:31:04;101448.16;;;7.56;100.00
64544;BME280;50936;51.660;5.616;2023-01-30T10:33:43;101452.59;;;7.57;100.00
64544;BME280;50936;51.660;5.616;2023-01-30T10:39:53;101459.88;;;7.55;100.00
64544;BME280;50936;51.660;5.616;2023-01-30T10:42:35;101461.59;;;7.56;100.00
64544;BME280;50936;51.660;5.616;2023-01-30T10:45:15;101460.84;;;7.52;100.00
64544;BME280;50936;51.660;5.616;2023-01-30T10:51:17;101472.22;;;7.40;100.00
64544;BME280;50936;51.660;5.616;2023-01-30T10:54:02;101474.78;;;7.42;100.00
64544;BME280;50936;51.660;5.616;2023-01-30T10:59:40;101472.78;;;7.47;100.00
64544;BME280;50936;51.660;5.616;2023-01-30T11:05:26;101477.72;;;7.56;100.00
64544;BME280;50936;51.660;5.616;2023-01-30T11:07:56;101467.56;;;7.63;99.84
64544;BME280;50936;51.660;5.616;2023-01-30T11:10:25;101448.81;;;7.61;99.30
64544;BME280;50936;51.660;5.616;2023-01-30T11:13:13;101460.44;;;7.62;100.00
64544;BME280;50936;51.660;5.616;2023-01-30T11:15:46;101457.59;;;7.65;99.90
64544;BME280;50936;51.660;5.616;2023-01-30T11:18:17;101466.53;;;7.65;100.00
64544;BME280;50936;51.660;5.616;2023-01-30T11:21:11;101468.56;;;7.79;98.68
64544;BME280;50936;51.660;5.616;2023-01-30T11:24:16;101472.78;;;7.85;99.53
64544;BME280;50936;51.660;5.616;2023-01-30T11:26:49;101457.97;;;7.95;97.79
64544;BME280;50936;51.660;5.616;2023-01-30T11:32:00;101466.81;;;7.97;98.48
64544;BME280;50936;51.660;5.616;2023-01-30T11:34:29;101478.31;;;8.01;98.45
64544;BME280;50936;51.660;5.616;2023-01-30T11:37:29;101484.56;;;8.01;97.38
64544;BME280;50936;51.660;5.616;2023-01-30T11:39:58;101477.41;;;8.00;98.19
64544;BME280;50936;51.660;5.616;2023-01-30T11:42:43;101490.06;;;7.98;97.70
64544;BME280;50936;51.660;5.616;2023-01-30T11:45:17;101484.84;;;7.95;98.83
64544;BME280;50936;51.660;5.616;2023-01-30T11:48:15;101488.16;;;8.00;99.15
64544;BME280;50936;51.660;5.616;2023-01-30T11:51:05;101484.25;;;8.07;96.85
64544;BME280;50936;51.660;5.616;2023-01-30T11:53:43;101492.81;;;8.16;97.82
64544;BME280;50936;51.660;5.616;2023-01-30T11:56:29;101467.50;;;8.20;96.50
64544;BME280;50936;51.660;5.616;2023-01-30T12:01:49;101475.44;;;8.40;95.63
64544;BME280;50936;51.660;5.616;2023-01-30T12:04:18;101484.41;;;8.41;96.20
64544;BME280;50936;51.660;5.616;2023-01-30T12:06:48;101469.94;;;8.43;94.53
64544;BME280;50936;51.660;5.616;2023-01-30T12:09:34;101478.50;;;8.52;93.14
64544;BME280;50936;51.660;5.616;2023-01-30T12:12:33;101481.00;;;8.37;93.03
64544;BME280;50936;51.660;5.616;2023-01-30T12:17:47;101478.19;;;8.58;95.06
64544;BME280;50936;51.660;5.616;2023-01-30T12:23:41;101481.91;;;8.90;91.64
64544;BME280;50936;51.660;5.616;2023-01-30T12:26:20;101488.00;;;8.94;92.89
64544;BME280;50936;51.660;5.616;2023-01-30T12:32:10;101501.97;;;9.02;91.71
64544;BME280;50936;51.660;5.616;2023-01-30T12:34:41;101494.59;;;9.05;90.81
64544;BME280;50936;51.660;5.616;2023-01-30T12:37:47;101494.53;;;9.40;90.69
64544;BME280;50936;51.660;5.616;2023-01-30T12:40:49;101505.50;;;9.53;88.20
64544;BME280;50936;51.660;5.616;2023-01-30T12:47:14;101496.16;;;9.43;87.39
64544;BME280;50936;51.660;5.616;2023-01-30T12:55:20;101511.75;;;9.38;87.76
64544;BME280;50936;51.660;5.616;2023-01-30T12:58:08;101516.16;;;9.39;89.30
64544;BME280;50936;51.660;5.616;2023-01-30T13:03:57;101515.41;;;9.19;87.55
64544;BME280;50936;51.660;5.616;2023-01-30T13:10:15;101523.47;;;9.19;88.60
64544;BME280;50936;51.660;5.616;2023-01-30T13:18:50;101527.03;;;8.86;88.50
64544;BME280;50936;51.660;5.616;2023-01-30T13:21:35;101532.84;;;8.77;90.06
64544;BME280;50936;51.660;5.616;2023-01-30T13:24:40;101535.06;;;8.69;90.46
64544;BME280;50936;51.660;5.616;2023-01-30T13:27:18;101545.06;;;8.67;90.51
64544;BME280;50936;51.660;5.616;2023-01-30T13:29:49;101528.91;;;8.67;89.11
64544;BME280;50936;51.660;5.616;2023-01-30T13:35:19;101534.94;;;8.72;86.72
64544;BME280;50936;51.660;5.616;2023-01-30T13:37:57;101556.31;;;8.93;89.17
64544;BME280;50936;51.660;5.616;2023-01-30T13:40:28;101558.41;;;9.05;87.35
64544;BME280;50936;51.660;5.616;2023-01-30T13:43:05;101560.59;;;9.32;86.73
64544;BME280;50936;51.660;5.616;2023-01-30T13:45:44;101562.09;;;9.71;83.98
64544;BME280;50936;51.660;5.616;2023-01-30T13:51:11;101560.97;;;10.24;80.37
64544;BME280;50936;51.660;5.616;2023-01-30T13:53:53;101564.13;;;10.32;78.59
64544;BME280;50936;51.660;5.616;2023-01-30T14:07:10;101588.47;;;10.15;78.80
64544;BME280;50936;51.660;5.616;2023-01-30T14:09:50;101598.50;;;9.79;81.24
64544;BME280;50936;51.660;5.616;2023-01-30T14:12:43;101605.53;;;9.49;82.70
64544;BME280;50936;51.660;5.616;2023-01-30T14:17:57;101621.31;;;9.04;86.68
64544;BME280;50936;51.660;5.616;2023-01-30T14:20:35;101618.28;;;8.93;87.17
64544;BME280;50936;51.660;5.616;2023-01-30T14:23:32;101627.94;;;8.79;88.35
64544;BME280;50936;51.660;5.616;2023-01-30T14:26:00;101625.78;;;8.69;89.25
64544;BME280;50936;51.660;5.616;2023-01-30T14:30:57;101633.66;;;8.54;90.74
64544;BME280;50936;51.660;5.616;2023-01-30T14:38:38;101644.28;;;8.57;91.05
64544;BME280;50936;51.660;5.616;2023-01-30T14:43:51;101666.53;;;8.61;90.52
64544;BME280;50936;51.660;5.616;2023-01-30T14:59:31;101707.38;;;8.31;91.43
64544;BME280;50936;51.660;5.616;2023-01-30T15:02:20;101709.56;;;8.23;92.14
64544;BME280;50936;51.660;5.616;2023-01-30T15:07:43;101703.63;;;8.15;92.46
64544;BME280;50936;51.660;5.616;2023-01-30T15:16:00;101722.22;;;8.00;94.16
64544;BME280;50936;51.660;5.616;2023-01-30T15:31:04;101739.03;;;7.85;96.74
64544;BME280;50936;51.660;5.616;2023-01-30T15:33:47;101746.38;;;7.81;96.86
64544;BME280;50936;51.660;5.616;2023-01-30T15:36:23;101751.00;;;7.78;97.89
64544;BME280;50936;51.660;5.616;2023-01-30T15:41:28;101762.78;;;7.75;97.83
64544;BME280;50936;51.660;5.616;2023-01-30T15:50:10;101771.03;;;7.70;97.96
64544;BME280;50936;51.660;5.616;2023-01-30T15:52:47;101777.44;;;7.68;98.06
64544;BME280;50936;51.660;5.616;2023-01-30T15:57:55;101791.22;;;7.60;99.55
64544;BME280;50936;51.660;5.616;2023-01-30T16:00:30;101790.25;;;7.61;99.77
64544;BME280;50936;51.660;5.616;2023-01-30T16:03:01;101793.06;;;7.58;99.64
64544;BME280;50936;51.660;5.616;2023-01-30T16:05:30;101798.44;;;7.58;99.90
64544;BME280;50936;51.660;5.616;2023-01-30T16:07:57;101798.56;;;7.55;100.00
64544;BME280;50936;51.660;5.616;2023-01-30T16:10:43;101795.94;;;7.54;100.00
64544;BME280;50936;51.660;5.616;2023-01-30T16:13:19;101797.94;;;7.48;100.00
64544;BME280;50936;51.660;5.616;2023-01-30T16:15:57;101813.31;;;7.45;100.00
64544;BME280;50936;51.660;5.616;2023-01-30T16:18:51;101806.34;;;7.41;100.00